sensor_id;sensor_type;location;lat;lon;timestamp;P1;durP1;ratioP1;P2;durP2;ratioP2
73959;SDS011;62316;48.920;2.342;2023-07-08T00:00:44;28.00;;;25.00;;
73959;SDS011;62316;48.920;2.342;2023-07-08T00:03:13;29.75;;;27.75;;
73959;SDS011;62316;48.920;2.342;2023-07-08T00:05:41;30.00;;;27.00;;
73959;SDS011;62316;48.920;2.342;2023-07-08T00:08:13;27.75;;;27.50;;
73959;SDS011;62316;48.920;2.342;2023-07-08T00:10:39;23.00;;;20.50;;
73959;SDS011;62316;48.920;2.342;2023-07-08T00:13:04;26.00;;;22.75;;
73959;SDS011;62316;48.920;2.342;2023-07-08T00:15:30;31.50;;;27.25;;
73959;SDS011;62316;48.920;2.342;2023-07-08T00:18:00;25.25;;;21.25;;
73959;SDS011;62316;48.920;2.342;2023-07-08T00:20:35;26.75;;;25.25;;
73959;SDS011;62316;48.920;2.342;2023-07-08T00:23:03;25.25;;;23.00;;
73959;SDS011;62316;48.920;2.342;2023-07-08T00:25:29;25.25;;;20.75;;
73959;SDS011;62316;48.920;2.342;2023-07-08T00:27:55;29.50;;;26.25;;
73959;SDS011;62316;48.920;2.342;2023-07-08T00:30:25;23.00;;;21.25;;
73959;SDS011;62316;48.920;2.342;2023-07-08T00:32:53;24.25;;;23.00;;
73959;SDS011;62316;48.920;2.342;2023-07-08T00:35:36;24.75;;;21.25;;
73959;SDS011;62316;48.920;2.342;2023-07-08T00:38:02;15.00;;;12.25;;
73959;SDS011;62316;48.920;2.342;2023-07-08T00:43:24;21.25;;;17.25;;
73959;SDS011;62316;48.920;2.342;2023-07-08T00:49:00;23.50;;;18.50;;
73959;SDS011;62316;48.920;2.342;2023-07-08T00:51:37;16.25;;;16.00;;
73959;SDS011;62316;48.920;2.342;2023-07-08T00:54:05;19.50;;;17.50;;
73959;SDS011;62316;48.920;2.342;2023-07-08T00:56:41;20.25;;;19.00;;
73959;SDS011;62316;48.920;2.342;2023-07-08T00:59:11;21.00;;;17.75;;
73959;SDS011;62316;48.920;2.342;2023-07-08T01:01:39;16.50;;;14.75;;
73959;SDS011;62316;48.920;2.342;2023-07-08T01:04:13;16.50;;;13.75;;
73959;SDS011;62316;48.920;2.342;2023-07-08T01:06:43;15.75;;;13.00;;
73959;SDS011;62316;48.920;2.342;2023-07-08T01:09:11;24.00;;;21.25;;
73959;SDS011;62316;48.920;2.342;2023-07-08T01:11:39;24.75;;;23.00;;
73959;SDS011;62316;48.920;2.342;2023-07-08T01:14:05;20.00;;;19.25;;
73959;SDS011;62316;48.920;2.342;2023-07-08T01:16:32;21.25;;;18.50;;
73959;SDS011;62316;48.920;2.342;2023-07-08T01:18:59;19.75;;;16.50;;
73959;SDS011;62316;48.920;2.342;2023-07-08T01:21:31;21.25;;;19.25;;
73959;SDS011;62316;48.920;2.342;2023-07-08T01:24:02;16.00;;;11.50;;
73959;SDS011;62316;48.920;2.342;2023-07-08T01:26:30;19.75;;;16.00;;
73959;SDS011;62316;48.920;2.342;2023-07-08T01:28:57;19.00;;;18.00;;
73959;SDS011;62316;48.920;2.342;2023-07-08T01:31:23;21.00;;;17.25;;
73959;SDS011;62316;48.920;2.342;2023-07-08T01:33:49;20.50;;;19.00;;
73959;SDS011;62316;48.920;2.342;2023-07-08T01:36:16;22.50;;;20.00;;
73959;SDS011;62316;48.920;2.342;2023-07-08T01:38:42;16.25;;;15.75;;
73959;SDS011;62316;48.920;2.342;2023-07-08T01:41:10;23.75;;;20.75;;
73959;SDS011;62316;48.920;2.342;2023-07-08T01:43:36;19.00;;;17.75;;
73959;SDS011;62316;48.920;2.342;2023-07-08T01:46:02;14.50;;;14.50;;
73959;SDS011;62316;48.920;2.342;2023-07-08T01:48:29;16.25;;;14.00;;
73959;SDS011;62316;48.920;2.342;2023-07-08T01:51:00;19.25;;;16.25;;
73959;SDS011;62316;48.920;2.342;2023-07-08T01:53:29;15.50;;;14.50;;
73959;SDS011;62316;48.920;2.342;2023-07-08T01:55:56;11.00;;;10.50;;
73959;SDS011;62316;48.920;2.342;2023-07-08T01:58:22;14.25;;;13.00;;
73959;SDS011;62316;48.920;2.342;2023-07-08T02:00:47;17.50;;;13.00;;
73959;SDS011;62316;48.920;2.342;2023-07-08T02:03:14;18.25;;;16.00;;
73959;SDS011;62316;48.920;2.342;2023-07-08T02:05:40;20.25;;;16.00;;
73959;SDS011;62316;48.920;2.342;2023-07-08T02:08:05;19.75;;;15.25;;
73959;SDS011;62316;48.920;2.342;2023-07-08T02:10:30;15.25;;;13.00;;
73959;SDS011;62316;48.920;2.342;2023-07-08T02:12:56;8.75;;;8.75;;
73959;SDS011;62316;48.920;2.342;2023-07-08T02:15:21;10.00;;;9.75;;
73959;SDS011;62316;48.920;2.342;2023-07-08T02:17:47;9.50;;;9.00;;
73959;SDS011;62316;48.920;2.342;2023-07-08T02:20:12;8.50;;;8.50;;
73959;SDS011;62316;48.920;2.342;2023-07-08T02:22:37;7.00;;;6.00;;
73959;SDS011;62316;48.920;2.342;2023-07-08T02:25:03;8.25;;;6.75;;
73959;SDS011;62316;48.920;2.342;2023-07-08T02:27:30;8.00;;;6.00;;
73959;SDS011;62316;48.920;2.342;2023-07-08T02:29:55;4.33;;;4.33;;
73959;SDS011;62316;48.920;2.342;2023-07-08T02:32:21;6.00;;;4.50;;
73959;SDS011;62316;48.920;2.342;2023-07-08T02:34:46;6.50;;;5.50;;
73959;SDS011;62316;48.920;2.342;2023-07-08T02:37:12;7.25;;;7.25;;
73959;SDS011;62316;48.920;2.342;2023-07-08T02:39:37;5.75;;;5.75;;
73959;SDS011;62316;48.920;2.342;2023-07-08T02:42:03;5.00;;;5.00;;
73959;SDS011;62316;48.920;2.342;2023-07-08T02:44:28;7.00;;;5.50;;
73959;SDS011;62316;48.920;2.342;2023-07-08T02:46:54;4.00;;;4.00;;
73959;SDS011;62316;48.920;2.342;2023-07-08T02:49:19;1.00;;;1.00;;
73959;SDS011;62316;48.920;2.342;2023-07-08T02:51:44;5.67;;;5.67;;
73959;SDS011;62316;48.920;2.342;2023-07-08T02:54:10;2.33;;;2.33;;
73959;SDS011;62316;48.920;2.342;2023-07-08T02:56:35;6.00;;;5.00;;
73959;SDS011;62316;48.920;2.342;2023-07-08T02:59:01;5.33;;;4.67;;
73959;SDS011;62316;48.920;2.342;2023-07-08T03:01:26;2.00;;;2.00;;
73959;SDS011;62316;48.920;2.342;2023-07-08T03:03:51;1.00;;;1.00;;
73959;SDS011;62316;48.920;2.342;2023-07-08T03:06:21;2.00;;;2.00;;
73959;SDS011;62316;48.920;2.342;2023-07-08T03:08:47;5.00;;;3.00;;
73959;SDS011;62316;48.920;2.342;2023-07-08T03:11:12;4.00;;;2.67;;
73959;SDS011;62316;48.920;2.342;2023-07-08T03:13:37;2.00;;;2.00;;
73959;SDS011;62316;48.920;2.342;2023-07-08T03:16:03;3.00;;;2.00;;
73959;SDS011;62316;48.920;2.342;2023-07-08T03:18:37;2.00;;;2.00;;
73959;SDS011;62316;48.920;2.342;2023-07-08T03:21:11;5.00;;;4.00;;
73959;SDS011;62316;48.920;2.342;2023-07-08T03:23:37;3.00;;;3.00;;
73959;SDS011;62316;48.920;2.342;2023-07-08T03:26:03;2.67;;;2.67;;
73959;SDS011;62316;48.920;2.342;2023-07-08T03:28:29;3.00;;;3.00;;
73959;SDS011;62316;48.920;2.342;2023-07-08T03:30:54;4.00;;;3.00;;
73959;SDS011;62316;48.920;2.342;2023-07-08T03:33:20;3.00;;;1.00;;
73959;SDS011;62316;48.920;2.342;2023-07-08T03:35:46;1.33;;;0.00;;
73959;SDS011;62316;48.920;2.342;2023-07-08T03:38:11;3.67;;;2.33;;
73959;SDS011;62316;48.920;2.342;2023-07-08T03:40:36;1.00;;;1.00;;
73959;SDS011;62316;48.920;2.342;2023-07-08T03:43:02;1.33;;;1.33;;
73959;SDS011;62316;48.920;2.342;2023-07-08T03:45:27;3.67;;;2.33;;
73959;SDS011;62316;48.920;2.342;2023-07-08T03:47:52;3.33;;;2.00;;
73959;SDS011;62316;48.920;2.342;2023-07-08T03:50:20;1.33;;;1.33;;
73959;SDS011;62316;48.920;2.342;2023-07-08T03:52:46;1.33;;;1.33;;
73959;SDS011;62316;48.920;2.342;2023-07-08T03:55:12;2.67;;;2.67;;
73959;SDS011;62316;48.920;2.342;2023-07-08T03:57:38;2.00;;;2.00;;
73959;SDS011;62316;48.920;2.342;2023-07-08T04:00:03;1.33;;;1.33;;
73959;SDS011;62316;48.920;2.342;2023-07-08T04:02:29;3.33;;;3.00;;
73959;SDS011;62316;48.920;2.342;2023-07-08T04:04:55;4.00;;;2.67;;
73959;SDS011;62316;48.920;2.342;2023-07-08T04:07:20;3.33;;;3.33;;
73959;SDS011;62316;48.920;2.342;2023-07-08T04:09:45;4.67;;;3.00;;
73959;SDS011;62316;48.920;2.342;2023-07-08T04:12:15;2.67;;;2.67;;
73959;SDS011;62316;48.920;2.342;2023-07-08T04:14:40;6.00;;;3.00;;
73959;SDS011;62316;48.920;2.342;2023-07-08T04:17:07;2.00;;;2.00;;
73959;SDS011;62316;48.920;2.342;2023-07-08T04:19:33;20.75;;;16.75;;
73959;SDS011;62316;48.920;2.342;2023-07-08T04:22:00;5.00;;;3.67;;
73959;SDS011;62316;48.920;2.342;2023-07-08T04:24:26;6.75;;;5.50;;
73959;SDS011;62316;48.920;2.342;2023-07-08T04:26:51;4.00;;;4.00;;
73959;SDS011;62316;48.920;2.342;2023-07-08T04:29:18;0.00;;;0.00;;
73959;SDS011;62316;48.920;2.342;2023-07-08T04:31:45;3.67;;;2.33;;
73959;SDS011;62316;48.920;2.342;2023-07-08T04:34:10;3.00;;;2.00;;
73959;SDS011;62316;48.920;2.342;2023-07-08T04:36:36;3.00;;;3.00;;
73959;SDS011;62316;48.920;2.342;2023-07-08T04:39:02;4.67;;;2.33;;
73959;SDS011;62316;48.920;2.342;2023-07-08T04:41:29;6.33;;;6.33;;
73959;SDS011;62316;48.920;2.342;2023-07-08T04:43:55;2.33;;;2.33;;
73959;SDS011;62316;48.920;2.342;2023-07-08T04:46:35;3.67;;;2.67;;
73959;SDS011;62316;48.920;2.342;2023-07-08T04:49:07;2.33;;;1.67;;
73959;SDS011;62316;48.920;2.342;2023-07-08T04:51:34;2.00;;;2.00;;
73959;SDS011;62316;48.920;2.342;2023-07-08T04:54:00;4.00;;;2.33;;
73959;SDS011;62316;48.920;2.342;2023-07-08T04:56:26;3.00;;;3.00;;
73959;SDS011;62316;48.920;2.342;2023-07-08T04:59:09;4.67;;;3.00;;
73959;SDS011;62316;48.920;2.342;2023-07-08T05:01:36;1.00;;;1.00;;
73959;SDS011;62316;48.920;2.342;2023-07-08T05:04:02;2.00;;;2.00;;
73959;SDS011;62316;48.920;2.342;2023-07-08T05:06:28;5.00;;;4.00;;
73959;SDS011;62316;48.920;2.342;2023-07-08T05:08:53;3.33;;;3.00;;
73959;SDS011;62316;48.920;2.342;2023-07-08T05:11:19;4.67;;;4.67;;
73959;SDS011;62316;48.920;2.342;2023-07-08T05:13:44;3.00;;;3.00;;
73959;SDS011;62316;48.920;2.342;2023-07-08T05:16:10;3.67;;;3.67;;
73959;SDS011;62316;48.920;2.342;2023-07-08T05:18:35;4.00;;;4.00;;
73959;SDS011;62316;48.920;2.342;2023-07-08T05:21:01;6.33;;;6.33;;
73959;SDS011;62316;48.920;2.342;2023-07-08T05:23:28;3.00;;;3.00;;
73959;SDS011;62316;48.920;2.342;2023-07-08T05:25:54;6.33;;;4.67;;
73959;SDS011;62316;48.920;2.342;2023-07-08T05:28:19;4.33;;;3.33;;
73959;SDS011;62316;48.920;2.342;2023-07-08T05:30:46;4.00;;;2.00;;
73959;SDS011;62316;48.920;2.342;2023-07-08T05:33:12;3.00;;;3.00;;
73959;SDS011;62316;48.920;2.342;2023-07-08T05:35:38;3.00;;;3.00;;
73959;SDS011;62316;48.920;2.342;2023-07-08T05:38:03;3.00;;;3.00;;
73959;SDS011;62316;48.920;2.342;2023-07-08T05:40:29;4.33;;;3.33;;
73959;SDS011;62316;48.920;2.342;2023-07-08T05:42:54;3.67;;;3.67;;
73959;SDS011;62316;48.920;2.342;2023-07-08T05:45:19;2.00;;;2.00;;
73959;SDS011;62316;48.920;2.342;2023-07-08T05:47:47;3.33;;;3.33;;
73959;SDS011;62316;48.920;2.342;2023-07-08T05:50:13;5.00;;;3.00;;
73959;SDS011;62316;48.920;2.342;2023-07-08T05:52:38;5.00;;;3.00;;
73959;SDS011;62316;48.920;2.342;2023-07-08T05:55:04;4.67;;;4.00;;
73959;SDS011;62316;48.920;2.342;2023-07-08T05:57:29;4.67;;;3.33;;
73959;SDS011;62316;48.920;2.342;2023-07-08T05:59:55;2.33;;;2.33;;
73959;SDS011;62316;48.920;2.342;2023-07-08T06:02:20;3.00;;;3.00;;
73959;SDS011;62316;48.920;2.342;2023-07-08T06:04:48;5.00;;;3.00;;
73959;SDS011;62316;48.920;2.342;2023-07-08T06:07:13;8.67;;;5.33;;
73959;SDS011;62316;48.920;2.342;2023-07-08T06:09:39;4.33;;;3.00;;
73959;SDS011;62316;48.920;2.342;2023-07-08T06:12:04;5.00;;;3.00;;
73959;SDS011;62316;48.920;2.342;2023-07-08T06:14:29;4.67;;;4.00;;
73959;SDS011;62316;48.920;2.342;2023-07-08T06:16:55;11.00;;;5.67;;
73959;SDS011;62316;48.920;2.342;2023-07-08T06:22:20;2.00;;;2.00;;
73959;SDS011;62316;48.920;2.342;2023-07-08T06:24:46;3.00;;;3.00;;
73959;SDS011;62316;48.920;2.342;2023-07-08T06:27:12;5.33;;;3.67;;
73959;SDS011;62316;48.920;2.342;2023-07-08T06:29:38;4.67;;;4.67;;
73959;SDS011;62316;48.920;2.342;2023-07-08T06:32:03;6.00;;;5.00;;
73959;SDS011;62316;48.920;2.342;2023-07-08T06:34:29;2.67;;;2.67;;
73959;SDS011;62316;48.920;2.342;2023-07-08T06:36:54;3.00;;;3.00;;
73959;SDS011;62316;48.920;2.342;2023-07-08T06:39:20;3.00;;;3.00;;
73959;SDS011;62316;48.920;2.342;2023-07-08T06:41:45;7.67;;;3.33;;
73959;SDS011;62316;48.920;2.342;2023-07-08T06:44:11;3.00;;;3.00;;
73959;SDS011;62316;48.920;2.342;2023-07-08T06:46:36;4.33;;;3.33;;
73959;SDS011;62316;48.920;2.342;2023-07-08T06:49:09;4.00;;;4.00;;
73959;SDS011;62316;48.920;2.342;2023-07-08T06:51:36;2.33;;;2.33;;
73959;SDS011;62316;48.920;2.342;2023-07-08T06:54:02;3.00;;;3.00;;
73959;SDS011;62316;48.920;2.342;2023-07-08T06:56:30;4.00;;;4.00;;
73959;SDS011;62316;48.920;2.342;2023-07-08T06:59:09;3.00;;;3.00;;
73959;SDS011;62316;48.920;2.342;2023-07-08T07:01:35;3.33;;;2.67;;
73959;SDS011;62316;48.920;2.342;2023-07-08T07:04:01;3.00;;;3.00;;
73959;SDS011;62316;48.920;2.342;2023-07-08T07:06:28;5.33;;;5.33;;
73959;SDS011;62316;48.920;2.342;2023-07-08T07:08:53;4.00;;;4.00;;
73959;SDS011;62316;48.920;2.342;2023-07-08T07:11:19;5.00;;;5.00;;
73959;SDS011;62316;48.920;2.342;2023-07-08T07:13:44;4.33;;;4.33;;
73959;SDS011;62316;48.920;2.342;2023-07-08T07:16:13;3.00;;;3.00;;
73959;SDS011;62316;48.920;2.342;2023-07-08T07:18:38;3.33;;;2.00;;
73959;SDS011;62316;48.920;2.342;2023-07-08T07:21:03;3.33;;;3.33;;
73959;SDS011;62316;48.920;2.342;2023-07-08T07:23:29;4.00;;;3.33;;
73959;SDS011;62316;48.920;2.342;2023-07-08T07:25:57;3.00;;;2.00;;
73959;SDS011;62316;48.920;2.342;2023-07-08T07:28:22;4.67;;;3.00;;
73959;SDS011;62316;48.920;2.342;2023-07-08T07:30:54;4.00;;;2.00;;
73959;SDS011;62316;48.920;2.342;2023-07-08T07:33:21;2.33;;;1.00;;
73959;SDS011;62316;48.920;2.342;2023-07-08T07:35:46;4.33;;;3.00;;
73959;SDS011;62316;48.920;2.342;2023-07-08T07:38:13;3.33;;;3.00;;
73959;SDS011;62316;48.920;2.342;2023-07-08T07:40:39;2.67;;;2.33;;
73959;SDS011;62316;48.920;2.342;2023-07-08T07:43:05;4.00;;;4.00;;
73959;SDS011;62316;48.920;2.342;2023-07-08T07:45:31;4.33;;;4.33;;
73959;SDS011;62316;48.920;2.342;2023-07-08T07:47:56;3.33;;;3.00;;
73959;SDS011;62316;48.920;2.342;2023-07-08T07:50:22;3.00;;;3.00;;
73959;SDS011;62316;48.920;2.342;2023-07-08T07:52:47;3.00;;;3.00;;
73959;SDS011;62316;48.920;2.342;2023-07-08T07:55:13;3.00;;;3.00;;
73959;SDS011;62316;48.920;2.342;2023-07-08T07:57:38;3.67;;;3.67;;
73959;SDS011;62316;48.920;2.342;2023-07-08T08:00:04;7.00;;;6.00;;
73959;SDS011;62316;48.920;2.342;2023-07-08T08:02:30;3.00;;;3.00;;
73959;SDS011;62316;48.920;2.342;2023-07-08T08:04:55;4.67;;;4.00;;
73959;SDS011;62316;48.920;2.342;2023-07-08T08:07:21;3.00;;;3.00;;
73959;SDS011;62316;48.920;2.342;2023-07-08T08:09:46;3.67;;;3.00;;
73959;SDS011;62316;48.920;2.342;2023-07-08T08:12:12;5.00;;;4.00;;
73959;SDS011;62316;48.920;2.342;2023-07-08T08:14:37;7.33;;;4.67;;
73959;SDS011;62316;48.920;2.342;2023-07-08T08:17:03;6.00;;;4.00;;
73959;SDS011;62316;48.920;2.342;2023-07-08T08:19:29;4.00;;;3.33;;
73959;SDS011;62316;48.920;2.342;2023-07-08T08:21:54;3.00;;;3.00;;
73959;SDS011;62316;48.920;2.342;2023-07-08T08:24:20;4.33;;;3.33;;
73959;SDS011;62316;48.920;2.342;2023-07-08T08:26:45;3.00;;;3.00;;
73959;SDS011;62316;48.920;2.342;2023-07-08T08:29:10;5.00;;;4.00;;
73959;SDS011;62316;48.920;2.342;2023-07-08T08:31:36;5.00;;;5.00;;
73959;SDS011;62316;48.920;2.342;2023-07-08T08:34:01;3.33;;;3.00;;
73959;SDS011;62316;48.920;2.342;2023-07-08T08:36:27;4.67;;;4.00;;
73959;SDS011;62316;48.920;2.342;2023-07-08T08:38:55;4.33;;;3.33;;
73959;SDS011;62316;48.920;2.342;2023-07-08T08:41:22;8.00;;;6.00;;
73959;SDS011;62316;48.920;2.342;2023-07-08T08:43:55;4.67;;;4.67;;
73959;SDS011;62316;48.920;2.342;2023-07-08T08:46:23;4.33;;;4.00;;
73959;SDS011;62316;48.920;2.342;2023-07-08T08:51:52;5.00;;;4.00;;
73959;SDS011;62316;48.920;2.342;2023-07-08T08:54:17;6.00;;;5.00;;
73959;SDS011;62316;48.920;2.342;2023-07-08T08:59:38;5.00;;;5.00;;
73959;SDS011;62316;48.920;2.342;2023-07-08T09:04:52;3.67;;;3.67;;
73959;SDS011;62316;48.920;2.342;2023-07-08T09:07:18;5.50;;;5.50;;
73959;SDS011;62316;48.920;2.342;2023-07-08T09:12:24;5.33;;;5.33;;
73959;SDS011;62316;48.920;2.342;2023-07-08T09:14:51;6.00;;;5.00;;
73959;SDS011;62316;48.920;2.342;2023-07-08T09:17:19;2.67;;;2.67;;
73959;SDS011;62316;48.920;2.342;2023-07-08T09:19:54;5.00;;;4.00;;
73959;SDS011;62316;48.920;2.342;2023-07-08T09:22:32;5.33;;;4.67;;
73959;SDS011;62316;48.920;2.342;2023-07-08T09:25:05;6.33;;;6.00;;
73959;SDS011;62316;48.920;2.342;2023-07-08T09:27:54;4.67;;;3.33;;
73959;SDS011;62316;48.920;2.342;2023-07-08T09:30:20;3.67;;;3.33;;
73959;SDS011;62316;48.920;2.342;2023-07-08T09:32:47;6.00;;;6.00;;
73959;SDS011;62316;48.920;2.342;2023-07-08T09:35:37;5.67;;;5.67;;
73959;SDS011;62316;48.920;2.342;2023-07-08T09:38:12;5.33;;;5.00;;
73959;SDS011;62316;48.920;2.342;2023-07-08T09:40:42;3.67;;;3.33;;
73959;SDS011;62316;48.920;2.342;2023-07-08T09:45:40;4.00;;;3.00;;
73959;SDS011;62316;48.920;2.342;2023-07-08T09:48:14;5.67;;;4.00;;
73959;SDS011;62316;48.920;2.342;2023-07-08T09:50:42;6.00;;;4.33;;
73959;SDS011;62316;48.920;2.342;2023-07-08T09:53:11;4.33;;;4.33;;
73959;SDS011;62316;48.920;2.342;2023-07-08T09:55:37;5.33;;;5.33;;
73959;SDS011;62316;48.920;2.342;2023-07-08T09:58:03;7.00;;;5.67;;
73959;SDS011;62316;48.920;2.342;2023-07-08T10:00:34;8.00;;;5.00;;
73959;SDS011;62316;48.920;2.342;2023-07-08T10:03:26;6.67;;;6.67;;
73959;SDS011;62316;48.920;2.342;2023-07-08T10:05:54;4.67;;;4.00;;
73959;SDS011;62316;48.920;2.342;2023-07-08T10:08:22;8.00;;;6.75;;
73959;SDS011;62316;48.920;2.342;2023-07-08T10:11:32;5.67;;;5.67;;
73959;SDS011;62316;48.920;2.342;2023-07-08T10:13:40;2.67;;;2.67;;
73959;SDS011;62316;48.920;2.342;2023-07-08T10:16:12;6.00;;;6.00;;
73959;SDS011;62316;48.920;2.342;2023-07-08T10:18:38;4.67;;;4.67;;
73959;SDS011;62316;48.920;2.342;2023-07-08T10:21:08;8.33;;;7.00;;
73959;SDS011;62316;48.920;2.342;2023-07-08T10:26:42;7.00;;;7.00;;
73959;SDS011;62316;48.920;2.342;2023-07-08T10:32:01;6.67;;;6.67;;
73959;SDS011;62316;48.920;2.342;2023-07-08T10:35:17;4.67;;;4.67;;
73959;SDS011;62316;48.920;2.342;2023-07-08T10:40:24;6.33;;;6.33;;
73959;SDS011;62316;48.920;2.342;2023-07-08T10:46:07;5.00;;;5.00;;
73959;SDS011;62316;48.920;2.342;2023-07-08T10:59:28;6.00;;;6.00;;
73959;SDS011;62316;48.920;2.342;2023-07-08T11:04:40;9.00;;;7.00;;
73959;SDS011;62316;48.920;2.342;2023-07-08T11:07:16;7.33;;;7.33;;
73959;SDS011;62316;48.920;2.342;2023-07-08T11:10:00;7.00;;;7.00;;
73959;SDS011;62316;48.920;2.342;2023-07-08T11:12:35;6.00;;;6.00;;
73959;SDS011;62316;48.920;2.342;2023-07-08T11:17:38;6.33;;;6.33;;
73959;SDS011;62316;48.920;2.342;2023-07-08T11:20:13;5.00;;;5.00;;
73959;SDS011;62316;48.920;2.342;2023-07-08T11:22:42;9.50;;;7.75;;
73959;SDS011;62316;48.920;2.342;2023-07-08T11:25:20;13.00;;;10.67;;
73959;SDS011;62316;48.920;2.342;2023-07-08T11:27:46;11.50;;;9.25;;
73959;SDS011;62316;48.920;2.342;2023-07-08T11:30:16;9.25;;;9.25;;
73959;SDS011;62316;48.920;2.342;2023-07-08T11:32:43;5.50;;;5.50;;
73959;SDS011;62316;48.920;2.342;2023-07-08T11:35:18;6.33;;;6.33;;
73959;SDS011;62316;48.920;2.342;2023-07-08T11:37:45;5.75;;;5.50;;
73959;SDS011;62316;48.920;2.342;2023-07-08T11:40:18;7.25;;;5.50;;
73959;SDS011;62316;48.920;2.342;2023-07-08T11:42:49;13.75;;;12.75;;
73959;SDS011;62316;48.920;2.342;2023-07-08T11:47:44;7.67;;;7.67;;
73959;SDS011;62316;48.920;2.342;2023-07-08T11:50:31;7.00;;;7.00;;
73959;SDS011;62316;48.920;2.342;2023-07-08T11:55:44;6.00;;;6.00;;
73959;SDS011;62316;48.920;2.342;2023-07-08T11:58:19;8.50;;;7.25;;
73959;SDS011;62316;48.920;2.342;2023-07-08T12:00:58;7.50;;;7.50;;
73959;SDS011;62316;48.920;2.342;2023-07-08T12:03:51;7.00;;;7.00;;
73959;SDS011;62316;48.920;2.342;2023-07-08T12:08:52;9.00;;;7.67;;
73959;SDS011;62316;48.920;2.342;2023-07-08T12:11:28;5.00;;;5.00;;
73959;SDS011;62316;48.920;2.342;2023-07-08T12:14:00;7.25;;;7.00;;
73959;SDS011;62316;48.920;2.342;2023-07-08T12:16:28;6.33;;;6.33;;
73959;SDS011;62316;48.920;2.342;2023-07-08T12:18:55;7.50;;;7.50;;
73959;SDS011;62316;48.920;2.342;2023-07-08T12:21:21;4.00;;;4.00;;
73959;SDS011;62316;48.920;2.342;2023-07-08T12:23:47;7.50;;;7.50;;
73959;SDS011;62316;48.920;2.342;2023-07-08T12:26:13;8.75;;;7.00;;
73959;SDS011;62316;48.920;2.342;2023-07-08T12:28:40;9.50;;;9.25;;
73959;SDS011;62316;48.920;2.342;2023-07-08T12:31:13;7.33;;;7.33;;
73959;SDS011;62316;48.920;2.342;2023-07-08T12:33:44;4.25;;;4.25;;
73959;SDS011;62316;48.920;2.342;2023-07-08T12:36:14;5.00;;;5.00;;
73959;SDS011;62316;48.920;2.342;2023-07-08T12:38:43;9.25;;;7.25;;
73959;SDS011;62316;48.920;2.342;2023-07-08T12:41:14;6.75;;;6.00;;
73959;SDS011;62316;48.920;2.342;2023-07-08T12:43:41;7.00;;;7.00;;
73959;SDS011;62316;48.920;2.342;2023-07-08T12:46:08;7.00;;;6.25;;
73959;SDS011;62316;48.920;2.342;2023-07-08T12:48:35;8.25;;;7.50;;
73959;SDS011;62316;48.920;2.342;2023-07-08T12:51:02;6.67;;;6.67;;
73959;SDS011;62316;48.920;2.342;2023-07-08T12:53:29;7.25;;;7.25;;
73959;SDS011;62316;48.920;2.342;2023-07-08T12:55:55;6.00;;;6.00;;
73959;SDS011;62316;48.920;2.342;2023-07-08T12:58:24;8.50;;;5.75;;
73959;SDS011;62316;48.920;2.342;2023-07-08T13:00:53;6.50;;;6.50;;
73959;SDS011;62316;48.920;2.342;2023-07-08T13:03:22;6.25;;;5.00;;
73959;SDS011;62316;48.920;2.342;2023-07-08T13:05:51;5.25;;;4.75;;
73959;SDS011;62316;48.920;2.342;2023-07-08T13:08:18;8.67;;;6.33;;
73959;SDS011;62316;48.920;2.342;2023-07-08T13:10:49;8.67;;;7.67;;
73959;SDS011;62316;48.920;2.342;2023-07-08T13:13:21;6.25;;;6.00;;
73959;SDS011;62316;48.920;2.342;2023-07-08T13:15:48;8.50;;;8.50;;
73959;SDS011;62316;48.920;2.342;2023-07-08T13:18:15;8.67;;;7.33;;
73959;SDS011;62316;48.920;2.342;2023-07-08T13:20:42;7.25;;;7.00;;
73959;SDS011;62316;48.920;2.342;2023-07-08T13:23:10;5.00;;;5.00;;
73959;SDS011;62316;48.920;2.342;2023-07-08T13:25:37;7.75;;;7.75;;
73959;SDS011;62316;48.920;2.342;2023-07-08T13:28:14;6.50;;;5.75;;
73959;SDS011;62316;48.920;2.342;2023-07-08T13:30:49;8.00;;;6.75;;
73959;SDS011;62316;48.920;2.342;2023-07-08T13:33:17;9.25;;;9.25;;
73959;SDS011;62316;48.920;2.342;2023-07-08T13:35:43;11.00;;;10.25;;
73959;SDS011;62316;48.920;2.342;2023-07-08T13:38:19;10.25;;;8.50;;
73959;SDS011;62316;48.920;2.342;2023-07-08T13:40:48;8.25;;;6.25;;
73959;SDS011;62316;48.920;2.342;2023-07-08T13:43:15;8.50;;;7.00;;
73959;SDS011;62316;48.920;2.342;2023-07-08T13:45:44;8.00;;;8.00;;
73959;SDS011;62316;48.920;2.342;2023-07-08T13:50:43;5.00;;;5.00;;
73959;SDS011;62316;48.920;2.342;2023-07-08T13:53:20;6.33;;;6.33;;
73959;SDS011;62316;48.920;2.342;2023-07-08T13:55:48;8.00;;;8.00;;
73959;SDS011;62316;48.920;2.342;2023-07-08T13:58:15;5.50;;;5.00;;
73959;SDS011;62316;48.920;2.342;2023-07-08T14:00:41;7.00;;;6.00;;
73959;SDS011;62316;48.920;2.342;2023-07-08T14:03:11;9.00;;;7.33;;
73959;SDS011;62316;48.920;2.342;2023-07-08T14:05:39;6.00;;;4.25;;
73959;SDS011;62316;48.920;2.342;2023-07-08T14:08:10;6.00;;;6.00;;
73959;SDS011;62316;48.920;2.342;2023-07-08T14:10:38;7.00;;;6.00;;
73959;SDS011;62316;48.920;2.342;2023-07-08T14:13:04;10.00;;;10.00;;
73959;SDS011;62316;48.920;2.342;2023-07-08T14:15:30;6.00;;;5.50;;
73959;SDS011;62316;48.920;2.342;2023-07-08T14:17:55;9.67;;;8.00;;
73959;SDS011;62316;48.920;2.342;2023-07-08T14:20:20;11.00;;;8.50;;
73959;SDS011;62316;48.920;2.342;2023-07-08T14:22:48;6.75;;;6.75;;
73959;SDS011;62316;48.920;2.342;2023-07-08T14:25:16;5.00;;;5.00;;
73959;SDS011;62316;48.920;2.342;2023-07-08T14:27:43;6.00;;;6.00;;
73959;SDS011;62316;48.920;2.342;2023-07-08T14:30:09;6.25;;;6.00;;
73959;SDS011;62316;48.920;2.342;2023-07-08T14:32:35;6.75;;;6.25;;
73959;SDS011;62316;48.920;2.342;2023-07-08T14:35:23;6.00;;;6.00;;
73959;SDS011;62316;48.920;2.342;2023-07-08T14:37:49;5.67;;;5.67;;
73959;SDS011;62316;48.920;2.342;2023-07-08T14:42:45;5.00;;;5.00;;
73959;SDS011;62316;48.920;2.342;2023-07-08T14:45:10;9.00;;;9.00;;
73959;SDS011;62316;48.920;2.342;2023-07-08T14:47:39;7.00;;;5.00;;
73959;SDS011;62316;48.920;2.342;2023-07-08T14:50:15;4.00;;;4.00;;
73959;SDS011;62316;48.920;2.342;2023-07-08T14:52:40;5.67;;;3.67;;
73959;SDS011;62316;48.920;2.342;2023-07-08T14:55:07;6.33;;;6.00;;
73959;SDS011;62316;48.920;2.342;2023-07-08T14:57:39;7.00;;;7.00;;
73959;SDS011;62316;48.920;2.342;2023-07-08T15:00:15;7.33;;;5.67;;
73959;SDS011;62316;48.920;2.342;2023-07-08T15:02:42;5.50;;;5.50;;
73959;SDS011;62316;48.920;2.342;2023-07-08T15:05:12;6.00;;;6.00;;
73959;SDS011;62316;48.920;2.342;2023-07-08T15:07:40;6.00;;;6.00;;
73959;SDS011;62316;48.920;2.342;2023-07-08T15:10:05;4.00;;;4.00;;
73959;SDS011;62316;48.920;2.342;2023-07-08T15:18:34;5.00;;;5.00;;
73959;SDS011;62316;48.920;2.342;2023-07-08T15:21:00;5.50;;;5.50;;
73959;SDS011;62316;48.920;2.342;2023-07-08T15:23:25;5.00;;;4.67;;
73959;SDS011;62316;48.920;2.342;2023-07-08T15:25:54;5.75;;;5.75;;
73959;SDS011;62316;48.920;2.342;2023-07-08T15:31:24;4.33;;;4.33;;
73959;SDS011;62316;48.920;2.342;2023-07-08T15:34:04;1.33;;;1.33;;
73959;SDS011;62316;48.920;2.342;2023-07-08T15:37:02;7.75;;;6.75;;
73959;SDS011;62316;48.920;2.342;2023-07-08T15:39:57;8.00;;;7.00;;
73959;SDS011;62316;48.920;2.342;2023-07-08T15:42:25;7.00;;;5.75;;
73959;SDS011;62316;48.920;2.342;2023-07-08T15:44:50;6.75;;;6.50;;
73959;SDS011;62316;48.920;2.342;2023-07-08T15:47:17;6.00;;;6.00;;
73959;SDS011;62316;48.920;2.342;2023-07-08T15:49:43;6.00;;;5.00;;
73959;SDS011;62316;48.920;2.342;2023-07-08T15:52:35;7.50;;;7.50;;
73959;SDS011;62316;48.920;2.342;2023-07-08T15:55:00;5.25;;;4.75;;
73959;SDS011;62316;48.920;2.342;2023-07-08T15:57:26;5.33;;;5.33;;
73959;SDS011;62316;48.920;2.342;2023-07-08T15:59:52;8.25;;;7.25;;
73959;SDS011;62316;48.920;2.342;2023-07-08T16:02:23;6.00;;;6.00;;